sensor_id;sensor_type;location;lat;lon;timestamp;pressure;altitude;pressure_sealevel;temperature;humidity
74334;BME280;62753;40.394;-80.022;2023-01-28T00:01:20;97251.16;;;0.44;42.57
74334;BME280;62753;40.394;-80.022;2023-01-28T00:03:49;97256.97;;;0.81;40.94
74334;BME280;62753;40.394;-80.022;2023-01-28T00:06:13;97256.11;;;0.37;41.77
74334;BME280;62753;40.394;-80.022;2023-01-28T00:08:36;97250.49;;;0.85;41.71
74334;BME280;62753;40.394;-80.022;2023-01-28T00:11:04;97258.12;;;0.79;41.68
74334;BME280;62753;40.394;-80.022;2023-01-28T00:13:29;97256.29;;;0.72;41.20
74334;BME280;62753;40.394;-80.022;2023-01-28T00:15:55;97254.65;;;0.13;42.46
74334;BME280;62753;40.394;-80.022;2023-01-28T00:18:19;97249.10;;;0.18;43.17
74334;BME280;62753;40.394;-80.022;2023-01-28T00:20:56;97236.82;;;0.13;42.24
74334;BME280;62753;40.394;-80.022;2023-01-28T00:23:11;97245.59;;;0.19;41.90
74334;BME280;62753;40.394;-80.022;2023-01-28T00:25:36;97251.29;;;0.41;42.58
74334;BME280;62753;40.394;-80.022;2023-01-28T00:28:02;97252.85;;;0.53;41.48
74334;BME280;62753;40.394;-80.022;2023-01-28T00:30:27;97248.01;;;-0.02;42.12
74334;BME280;62753;40.394;-80.022;2023-01-28T00:32:54;97256.57;;;-0.31;42.72
74334;BME280;62753;40.394;-80.022;2023-01-28T00:35:19;97264.59;;;0.93;40.98
74334;BME280;62753;40.394;-80.022;2023-01-28T00:37:45;97304.20;;;-0.11;41.90
74334;BME280;62753;40.394;-80.022;2023-01-28T00:40:11;97294.79;;;0.84;40.33
74334;BME280;62753;40.394;-80.022;2023-01-28T00:42:36;97291.00;;;0.73;39.65
74334;BME280;62753;40.394;-80.022;2023-01-28T00:45:01;97292.79;;;0.57;40.77
74334;BME280;62753;40.394;-80.022;2023-01-28T00:47:27;97294.36;;;1.33;40.68
74334;BME280;62753;40.394;-80.022;2023-01-28T00:49:52;97291.53;;;1.57;39.28
74334;BME280;62753;40.394;-80.022;2023-01-28T00:52:18;97292.46;;;0.22;40.77
74334;BME280;62753;40.394;-80.022;2023-01-28T00:54:43;97283.55;;;0.81;39.45
74334;BME280;62753;40.394;-80.022;2023-01-28T00:57:09;97281.46;;;1.48;38.47
74334;BME280;62753;40.394;-80.022;2023-01-28T00:59:34;97282.52;;;1.37;38.57
74334;BME280;62753;40.394;-80.022;2023-01-28T01:02:00;97287.69;;;0.60;40.11
74334;BME280;62753;40.394;-80.022;2023-01-28T01:04:26;97283.14;;;0.13;40.94
74334;BME280;62753;40.394;-80.022;2023-01-28T01:06:51;97283.69;;;0.52;40.82
74334;BME280;62753;40.394;-80.022;2023-01-28T01:09:17;97278.79;;;1.15;39.65
74334;BME280;62753;40.394;-80.022;2023-01-28T01:11:42;97283.29;;;0.89;40.23
74334;BME280;62753;40.394;-80.022;2023-01-28T01:14:09;97279.46;;;0.29;40.34
74334;BME280;62753;40.394;-80.022;2023-01-28T01:16:34;97266.47;;;0.99;41.06
74334;BME280;62753;40.394;-80.022;2023-01-28T01:19:00;97259.46;;;1.31;39.96
74334;BME280;62753;40.394;-80.022;2023-01-28T01:21:28;97249.26;;;1.23;39.96
74334;BME280;62753;40.394;-80.022;2023-01-28T01:23:51;97245.96;;;1.70;38.90
74334;BME280;62753;40.394;-80.022;2023-01-28T01:26:16;97255.84;;;1.81;38.35
74334;BME280;62753;40.394;-80.022;2023-01-28T01:28:42;97255.75;;;1.41;39.17
74334;BME280;62753;40.394;-80.022;2023-01-28T01:31:11;97255.49;;;1.45;38.31
74334;BME280;62753;40.394;-80.022;2023-01-28T01:33:33;97247.66;;;1.28;37.81
74334;BME280;62753;40.394;-80.022;2023-01-28T01:35:59;97245.99;;;1.68;38.30
74334;BME280;62753;40.394;-80.022;2023-01-28T01:38:26;97242.44;;;1.62;38.15
74334;BME280;62753;40.394;-80.022;2023-01-28T01:40:50;97242.93;;;1.81;37.93
74334;BME280;62753;40.394;-80.022;2023-01-28T01:43:20;97246.98;;;2.03;37.32
74334;BME280;62753;40.394;-80.022;2023-01-28T01:45:41;97246.57;;;2.85;36.18
74334;BME280;62753;40.394;-80.022;2023-01-28T01:48:13;97251.10;;;3.63;34.39
74334;BME280;62753;40.394;-80.022;2023-01-28T01:50:36;97246.21;;;3.86;34.34
74334;BME280;62753;40.394;-80.022;2023-01-28T01:53:01;97242.18;;;2.72;34.24
74334;BME280;62753;40.394;-80.022;2023-01-28T01:55:25;97233.89;;;2.90;35.29
74334;BME280;62753;40.394;-80.022;2023-01-28T01:57:52;97229.37;;;2.13;36.18
74334;BME280;62753;40.394;-80.022;2023-01-28T02:00:16;97229.21;;;2.14;36.64
74334;BME280;62753;40.394;-80.022;2023-01-28T02:02:44;97233.50;;;1.49;37.98
74334;BME280;62753;40.394;-80.022;2023-01-28T02:05:08;97227.37;;;0.78;39.05
74334;BME280;62753;40.394;-80.022;2023-01-28T02:07:32;97227.57;;;1.23;38.47
74334;BME280;62753;40.394;-80.022;2023-01-28T02:09:57;97228.61;;;0.99;39.23
74334;BME280;62753;40.394;-80.022;2023-01-28T02:12:27;97232.23;;;0.73;39.01
74334;BME280;62753;40.394;-80.022;2023-01-28T02:14:51;97238.53;;;0.85;38.32
74334;BME280;62753;40.394;-80.022;2023-01-28T02:17:14;97233.72;;;1.90;37.40
74334;BME280;62753;40.394;-80.022;2023-01-28T02:19:43;97233.57;;;2.02;36.67
74334;BME280;62753;40.394;-80.022;2023-01-28T02:22:18;97232.34;;;1.16;37.81
74334;BME280;62753;40.394;-80.022;2023-01-28T02:24:52;97230.54;;;1.11;38.61
74334;BME280;62753;40.394;-80.022;2023-01-28T02:29:26;97234.97;;;0.88;38.42
74334;BME280;62753;40.394;-80.022;2023-01-28T02:31:52;97239.75;;;1.99;37.37
74334;BME280;62753;40.394;-80.022;2023-01-28T02:34:18;97234.36;;;1.75;37.08
74334;BME280;62753;40.394;-80.022;2023-01-28T02:36:44;97231.84;;;0.77;38.29
74334;BME280;62753;40.394;-80.022;2023-01-28T02:39:08;97239.23;;;2.37;36.06
74334;BME280;62753;40.394;-80.022;2023-01-28T02:41:33;97245.35;;;2.94;35.26
74334;BME280;62753;40.394;-80.022;2023-01-28T02:43:56;97243.63;;;3.41;35.10
74334;BME280;62753;40.394;-80.022;2023-01-28T02:48:47;97229.27;;;4.41;33.00
74334;BME280;62753;40.394;-80.022;2023-01-28T02:51:17;97224.44;;;2.39;35.70
74334;BME280;62753;40.394;-80.022;2023-01-28T02:53:43;97219.01;;;1.93;36.41
74334;BME280;62753;40.394;-80.022;2023-01-28T02:56:13;97226.75;;;1.25;37.31
74334;BME280;62753;40.394;-80.022;2023-01-28T02:58:34;97221.29;;;3.32;34.95
74334;BME280;62753;40.394;-80.022;2023-01-28T03:01:01;97227.27;;;3.83;33.70
74334;BME280;62753;40.394;-80.022;2023-01-28T03:03:25;97220.35;;;3.83;33.42
74334;BME280;62753;40.394;-80.022;2023-01-28T03:05:50;97215.51;;;3.75;32.79
74334;BME280;62753;40.394;-80.022;2023-01-28T03:08:12;97214.55;;;4.81;31.23
74334;BME280;62753;40.394;-80.022;2023-01-28T03:10:38;97214.85;;;6.06;29.57
74334;BME280;62753;40.394;-80.022;2023-01-28T03:13:03;97225.49;;;5.38;29.76
74334;BME280;62753;40.394;-80.022;2023-01-28T03:15:32;97215.58;;;5.47;29.95
74334;BME280;62753;40.394;-80.022;2023-01-28T03:17:59;97218.36;;;3.53;32.72
74334;BME280;62753;40.394;-80.022;2023-01-28T03:20:21;97221.60;;;3.21;32.83
74334;BME280;62753;40.394;-80.022;2023-01-28T03:22:48;97221.61;;;4.30;31.63
74334;BME280;62753;40.394;-80.022;2023-01-28T03:25:11;97223.99;;;4.12;32.14
74334;BME280;62753;40.394;-80.022;2023-01-28T03:27:43;97223.00;;;3.79;31.89
74334;BME280;62753;40.394;-80.022;2023-01-28T03:30:04;97230.82;;;3.31;32.88
74334;BME280;62753;40.394;-80.022;2023-01-28T03:32:27;97226.29;;;3.90;32.55
74334;BME280;62753;40.394;-80.022;2023-01-28T03:34:53;97224.67;;;4.70;31.06
74334;BME280;62753;40.394;-80.022;2023-01-28T03:37:18;97222.42;;;4.73;30.87
74334;BME280;62753;40.394;-80.022;2023-01-28T03:39:44;97219.15;;;6.02;29.33
74334;BME280;62753;40.394;-80.022;2023-01-28T03:42:11;97217.00;;;4.50;30.74
74334;BME280;62753;40.394;-80.022;2023-01-28T03:44:41;97220.85;;;5.39;30.66
74334;BME280;62753;40.394;-80.022;2023-01-28T03:47:01;97229.36;;;7.15;28.26
74334;BME280;62753;40.394;-80.022;2023-01-28T03:49:26;97229.23;;;6.01;28.52
74334;BME280;62753;40.394;-80.022;2023-01-28T03:51:52;97224.64;;;6.19;28.75
74334;BME280;62753;40.394;-80.022;2023-01-28T03:54:18;97221.53;;;4.02;31.28
74334;BME280;62753;40.394;-80.022;2023-01-28T03:56:43;97215.42;;;6.50;29.62
74334;BME280;62753;40.394;-80.022;2023-01-28T03:59:08;97216.28;;;6.80;28.98
74334;BME280;62753;40.394;-80.022;2023-01-28T04:01:34;97212.31;;;5.37;30.56
74334;BME280;62753;40.394;-80.022;2023-01-28T04:04:00;97212.90;;;6.06;29.28
74334;BME280;62753;40.394;-80.022;2023-01-28T04:06:25;97210.01;;;6.06;29.35
74334;BME280;62753;40.394;-80.022;2023-01-28T04:08:51;97214.95;;;5.73;29.87
74334;BME280;62753;40.394;-80.022;2023-01-28T04:11:16;97212.53;;;6.32;30.00
74334;BME280;62753;40.394;-80.022;2023-01-28T04:13:42;97216.02;;;6.06;30.20
74334;BME280;62753;40.394;-80.022;2023-01-28T04:16:08;97211.33;;;7.15;29.10
74334;BME280;62753;40.394;-80.022;2023-01-28T04:18:33;97221.39;;;7.20;28.86
74334;BME280;62753;40.394;-80.022;2023-01-28T04:20:58;97215.47;;;5.80;30.51
74334;BME280;62753;40.394;-80.022;2023-01-28T04:23:24;97213.44;;;5.83;30.63
74334;BME280;62753;40.394;-80.022;2023-01-28T04:25:51;97233.72;;;7.30;28.97
74334;BME280;62753;40.394;-80.022;2023-01-28T04:28:15;97228.02;;;7.52;29.06
74334;BME280;62753;40.394;-80.022;2023-01-28T04:30:41;97202.70;;;6.41;29.77
74334;BME280;62753;40.394;-80.022;2023-01-28T04:33:07;97207.95;;;6.85;29.48
74334;BME280;62753;40.394;-80.022;2023-01-28T04:35:32;97215.47;;;7.16;29.08
74334;BME280;62753;40.394;-80.022;2023-01-28T04:37:57;97224.85;;;6.98;28.53
74334;BME280;62753;40.394;-80.022;2023-01-28T04:40:23;97215.88;;;8.01;28.66
74334;BME280;62753;40.394;-80.022;2023-01-28T04:42:52;97230.27;;;8.04;28.79
74334;BME280;62753;40.394;-80.022;2023-01-28T04:45:14;97238.44;;;6.92;28.48
74334;BME280;62753;40.394;-80.022;2023-01-28T04:47:41;97225.31;;;7.69;28.13
74334;BME280;62753;40.394;-80.022;2023-01-28T04:50:05;97211.01;;;7.55;28.54
74334;BME280;62753;40.394;-80.022;2023-01-28T04:52:30;97213.09;;;6.66;30.95
74334;BME280;62753;40.394;-80.022;2023-01-28T04:54:56;97220.54;;;7.41;30.27
74334;BME280;62753;40.394;-80.022;2023-01-28T04:57:21;97218.42;;;7.15;28.69
74334;BME280;62753;40.394;-80.022;2023-01-28T04:59:47;97205.31;;;6.18;31.33
74334;BME280;62753;40.394;-80.022;2023-01-28T05:02:13;97221.04;;;7.06;30.15
74334;BME280;62753;40.394;-80.022;2023-01-28T05:04:39;97205.48;;;7.09;29.99
74334;BME280;62753;40.394;-80.022;2023-01-28T05:07:04;97209.60;;;6.57;30.81
74334;BME280;62753;40.394;-80.022;2023-01-28T05:09:29;97208.38;;;7.28;30.32
74334;BME280;62753;40.394;-80.022;2023-01-28T05:11:55;97206.22;;;8.19;28.32
74334;BME280;62753;40.394;-80.022;2023-01-28T05:14:20;97215.32;;;7.01;30.63
74334;BME280;62753;40.394;-80.022;2023-01-28T05:16:45;97210.10;;;6.30;31.76
74334;BME280;62753;40.394;-80.022;2023-01-28T05:19:12;97205.80;;;6.36;31.48
74334;BME280;62753;40.394;-80.022;2023-01-28T05:21:37;97207.86;;;7.16;30.95
74334;BME280;62753;40.394;-80.022;2023-01-28T05:24:03;97209.98;;;7.87;29.28
74334;BME280;62753;40.394;-80.022;2023-01-28T05:26:28;97202.33;;;7.47;29.67
74334;BME280;62753;40.394;-80.022;2023-01-28T05:28:53;97206.72;;;6.43;32.66
74334;BME280;62753;40.394;-80.022;2023-01-28T05:31:18;97212.16;;;6.52;31.64
74334;BME280;62753;40.394;-80.022;2023-01-28T05:33:44;97211.41;;;7.54;31.29
74334;BME280;62753;40.394;-80.022;2023-01-28T05:36:10;97212.76;;;6.93;31.35
74334;BME280;62753;40.394;-80.022;2023-01-28T05:38:35;97210.72;;;8.08;30.07
74334;BME280;62753;40.394;-80.022;2023-01-28T05:41:01;97212.44;;;7.24;30.35
74334;BME280;62753;40.394;-80.022;2023-01-28T05:43:26;97203.35;;;7.84;30.85
74334;BME280;62753;40.394;-80.022;2023-01-28T05:45:52;97212.66;;;7.58;30.10
74334;BME280;62753;40.394;-80.022;2023-01-28T05:48:17;97205.74;;;7.87;30.94
74334;BME280;62753;40.394;-80.022;2023-01-28T05:50:45;97209.55;;;6.76;31.38
74334;BME280;62753;40.394;-80.022;2023-01-28T05:53:09;97202.44;;;6.39;32.11
74334;BME280;62753;40.394;-80.022;2023-01-28T05:55:34;97208.03;;;7.21;31.85
74334;BME280;62753;40.394;-80.022;2023-01-28T05:57:59;97216.14;;;7.18;30.62
74334;BME280;62753;40.394;-80.022;2023-01-28T06:00:25;97220.39;;;7.09;30.97
74334;BME280;62753;40.394;-80.022;2023-01-28T06:02:51;97223.47;;;7.48;30.91
74334;BME280;62753;40.394;-80.022;2023-01-28T06:05:16;97219.24;;;8.32;29.82
74334;BME280;62753;40.394;-80.022;2023-01-28T06:07:44;97216.67;;;7.51;31.24
74334;BME280;62753;40.394;-80.022;2023-01-28T06:10:08;97220.29;;;8.00;30.33
74334;BME280;62753;40.394;-80.022;2023-01-28T06:12:32;97220.14;;;7.83;29.76
74334;BME280;62753;40.394;-80.022;2023-01-28T06:14:58;97228.46;;;8.08;29.06
74334;BME280;62753;40.394;-80.022;2023-01-28T06:17:23;97235.43;;;7.38;31.05
74334;BME280;62753;40.394;-80.022;2023-01-28T06:19:49;97241.51;;;7.15;31.37
74334;BME280;62753;40.394;-80.022;2023-01-28T06:22:14;97232.65;;;8.13;30.06
74334;BME280;62753;40.394;-80.022;2023-01-28T06:24:40;97249.13;;;8.07;29.86
74334;BME280;62753;40.394;-80.022;2023-01-28T06:27:05;97253.97;;;6.90;31.86
74334;BME280;62753;40.394;-80.022;2023-01-28T06:29:31;97246.33;;;7.61;31.99
74334;BME280;62753;40.394;-80.022;2023-01-28T06:31:56;97262.95;;;8.30;31.62
74334;BME280;62753;40.394;-80.022;2023-01-28T06:34:22;97268.51;;;8.56;29.56
74334;BME280;62753;40.394;-80.022;2023-01-28T06:36:47;97262.54;;;8.78;29.06
74334;BME280;62753;40.394;-80.022;2023-01-28T06:39:13;97248.82;;;9.22;28.98
74334;BME280;62753;40.394;-80.022;2023-01-28T06:41:38;97272.83;;;7.94;30.33
74334;BME280;62753;40.394;-80.022;2023-01-28T06:44:04;97261.52;;;9.48;29.06
74334;BME280;62753;40.394;-80.022;2023-01-28T06:46:29;97267.78;;;9.15;28.92
74334;BME280;62753;40.394;-80.022;2023-01-28T06:48:55;97280.57;;;8.49;30.17
74334;BME280;62753;40.394;-80.022;2023-01-28T06:51:20;97286.37;;;6.79;32.11
74334;BME280;62753;40.394;-80.022;2023-01-28T06:53:46;97294.15;;;7.47;31.38
74334;BME280;62753;40.394;-80.022;2023-01-28T06:56:11;97284.50;;;7.57;31.46
74334;BME280;62753;40.394;-80.022;2023-01-28T06:58:37;97298.33;;;8.37;30.79
74334;BME280;62753;40.394;-80.022;2023-01-28T07:01:02;97301.92;;;8.34;30.84
74334;BME280;62753;40.394;-80.022;2023-01-28T07:03:28;97304.52;;;7.85;31.10
74334;BME280;62753;40.394;-80.022;2023-01-28T07:05:53;97310.86;;;8.42;31.14
74334;BME280;62753;40.394;-80.022;2023-01-28T07:08:19;97311.19;;;7.96;30.95
74334;BME280;62753;40.394;-80.022;2023-01-28T07:10:44;97313.43;;;8.68;30.31
74334;BME280;62753;40.394;-80.022;2023-01-28T07:13:10;97317.73;;;8.28;30.54
74334;BME280;62753;40.394;-80.022;2023-01-28T07:15:36;97320.57;;;8.41;31.02
74334;BME280;62753;40.394;-80.022;2023-01-28T07:18:01;97327.40;;;8.75;29.93
74334;BME280;62753;40.394;-80.022;2023-01-28T07:20:26;97322.91;;;8.60;30.49
74334;BME280;62753;40.394;-80.022;2023-01-28T07:22:52;97323.75;;;7.83;31.22
74334;BME280;62753;40.394;-80.022;2023-01-28T07:25:17;97342.62;;;8.67;30.84
74334;BME280;62753;40.394;-80.022;2023-01-28T07:27:48;97344.89;;;9.03;29.62
74334;BME280;62753;40.394;-80.022;2023-01-28T07:30:10;97359.98;;;8.14;30.68
74334;BME280;62753;40.394;-80.022;2023-01-28T07:32:34;97370.94;;;8.29;30.90
74334;BME280;62753;40.394;-80.022;2023-01-28T07:34:59;97367.27;;;8.05;31.56
74334;BME280;62753;40.394;-80.022;2023-01-28T07:37:25;97367.30;;;7.09;33.19
74334;BME280;62753;40.394;-80.022;2023-01-28T07:39:50;97382.75;;;6.46;34.32
74334;BME280;62753;40.394;-80.022;2023-01-28T07:42:16;97395.61;;;7.58;33.31
74334;BME280;62753;40.394;-80.022;2023-01-28T07:44:41;97405.13;;;8.18;31.68
74334;BME280;62753;40.394;-80.022;2023-01-28T07:47:07;97413.46;;;7.83;32.00
74334;BME280;62753;40.394;-80.022;2023-01-28T07:49:33;97408.74;;;8.11;31.34
74334;BME280;62753;40.394;-80.022;2023-01-28T07:51:58;97401.96;;;7.71;32.39
74334;BME280;62753;40.394;-80.022;2023-01-28T07:54:23;97404.34;;;8.05;31.88
74334;BME280;62753;40.394;-80.022;2023-01-28T07:56:48;97416.51;;;8.56;31.22
74334;BME280;62753;40.394;-80.022;2023-01-28T07:59:14;97412.48;;;9.36;30.65
74334;BME280;62753;40.394;-80.022;2023-01-28T08:01:40;97417.28;;;8.16;32.14
74334;BME280;62753;40.394;-80.022;2023-01-28T08:04:05;97417.61;;;8.93;30.67
74334;BME280;62753;40.394;-80.022;2023-01-28T08:06:31;97416.39;;;7.50;32.51
74334;BME280;62753;40.394;-80.022;2023-01-28T08:08:56;97424.12;;;8.54;31.07
74334;BME280;62753;40.394;-80.022;2023-01-28T08:11:21;97418.27;;;9.26;30.45
74334;BME280;62753;40.394;-80.022;2023-01-28T08:13:47;97432.92;;;9.55;30.60
74334;BME280;62753;40.394;-80.022;2023-01-28T08:16:13;97428.50;;;9.62;29.01
74334;BME280;62753;40.394;-80.022;2023-01-28T08:18:38;97435.60;;;8.94;29.97
74334;BME280;62753;40.394;-80.022;2023-01-28T08:21:04;97428.96;;;8.75;30.67
74334;BME280;62753;40.394;-80.022;2023-01-28T08:23:29;97433.33;;;9.15;30.80
74334;BME280;62753;40.394;-80.022;2023-01-28T08:25:57;97447.12;;;8.96;31.00
74334;BME280;62753;40.394;-80.022;2023-01-28T08:28:20;97454.98;;;9.49;29.73
74334;BME280;62753;40.394;-80.022;2023-01-28T08:30:46;97455.20;;;9.92;29.97
74334;BME280;62753;40.394;-80.022;2023-01-28T08:33:13;97461.21;;;9.60;29.73
74334;BME280;62753;40.394;-80.022;2023-01-28T08:35:37;97461.35;;;9.01;30.82
74334;BME280;62753;40.394;-80.022;2023-01-28T08:38:03;97456.09;;;9.08;30.47
74334;BME280;62753;40.394;-80.022;2023-01-28T08:40:28;97463.47;;;8.23;31.57
74334;BME280;62753;40.394;-80.022;2023-01-28T08:42:53;97478.18;;;9.65;30.19
74334;BME280;62753;40.394;-80.022;2023-01-28T08:45:19;97484.58;;;8.62;31.53
74334;BME280;62753;40.394;-80.022;2023-01-28T08:47:48;97487.93;;;8.56;31.55
74334;BME280;62753;40.394;-80.022;2023-01-28T08:50:10;97484.21;;;8.43;31.80
74334;BME280;62753;40.394;-80.022;2023-01-28T08:52:35;97497.31;;;7.95;32.58
74334;BME280;62753;40.394;-80.022;2023-01-28T08:55:00;97498.49;;;8.06;32.06
74334;BME280;62753;40.394;-80.022;2023-01-28T08:57:26;97485.75;;;7.22;33.45
74334;BME280;62753;40.394;-80.022;2023-01-28T08:59:51;97492.10;;;8.34;33.04
74334;BME280;62753;40.394;-80.022;2023-01-28T09:02:16;97497.06;;;8.08;33.96
74334;BME280;62753;40.394;-80.022;2023-01-28T09:04:42;97496.41;;;7.04;34.36
74334;BME280;62753;40.394;-80.022;2023-01-28T09:07:08;97516.20;;;7.45;34.26
74334;BME280;62753;40.394;-80.022;2023-01-28T09:09:33;97520.78;;;8.38;33.09
74334;BME280;62753;40.394;-80.022;2023-01-28T09:11:59;97533.18;;;9.09;31.52
74334;BME280;62753;40.394;-80.022;2023-01-28T09:14:24;97531.39;;;7.70;33.42
74334;BME280;62753;40.394;-80.022;2023-01-28T09:16:50;97532.54;;;8.03;34.07
74334;BME280;62753;40.394;-80.022;2023-01-28T09:19:15;97530.16;;;8.03;33.41
74334;BME280;62753;40.394;-80.022;2023-01-28T09:21:41;97536.53;;;8.66;32.86
74334;BME280;62753;40.394;-80.022;2023-01-28T09:24:10;97541.52;;;9.03;31.65
74334;BME280;62753;40.394;-80.022;2023-01-28T09:26:32;97543.22;;;8.31;32.24
74334;BME280;62753;40.394;-80.022;2023-01-28T09:28:57;97532.75;;;8.53;32.07
74334;BME280;62753;40.394;-80.022;2023-01-28T09:31:23;97538.99;;;9.17;31.74
74334;BME280;62753;40.394;-80.022;2023-01-28T09:33:48;97542.85;;;9.02;32.00
74334;BME280;62753;40.394;-80.022;2023-01-28T09:36:14;97546.64;;;8.58;32.44
74334;BME280;62753;40.394;-80.022;2023-01-28T09:38:39;97550.16;;;8.66;31.89
74334;BME280;62753;40.394;-80.022;2023-01-28T09:43:40;97561.31;;;7.94;33.17
74334;BME280;62753;40.394;-80.022;2023-01-28T09:45:58;97557.91;;;7.08;34.38
74334;BME280;62753;40.394;-80.022;2023-01-28T09:48:23;97571.08;;;7.96;34.65
74334;BME280;62753;40.394;-80.022;2023-01-28T09:50:49;97575.90;;;7.76;34.29
74334;BME280;62753;40.394;-80.022;2023-01-28T09:53:17;97579.30;;;7.43;34.14
74334;BME280;62753;40.394;-80.022;2023-01-28T09:55:40;97588.26;;;8.68;33.09
74334;BME280;62753;40.394;-80.022;2023-01-28T09:58:11;97592.96;;;8.87;32.36
74334;BME280;62753;40.394;-80.022;2023-01-28T10:00:35;97588.68;;;8.52;32.82
74334;BME280;62753;40.394;-80.022;2023-01-28T10:03:04;97597.30;;;9.50;32.17
74334;BME280;62753;40.394;-80.022;2023-01-28T10:05:25;97596.66;;;8.78;32.16
74334;BME280;62753;40.394;-80.022;2023-01-28T10:07:51;97603.30;;;9.05;31.69
74334;BME280;62753;40.394;-80.022;2023-01-28T10:10:13;97614.15;;;9.59;30.88
74334;BME280;62753;40.394;-80.022;2023-01-28T10:12:46;97611.53;;;9.56;31.44
74334;BME280;62753;40.394;-80.022;2023-01-28T10:17:31;97614.25;;;8.94;32.10
74334;BME280;62753;40.394;-80.022;2023-01-28T10:19:57;97622.98;;;9.73;30.76
74334;BME280;62753;40.394;-80.022;2023-01-28T10:22:22;97617.12;;;9.57;30.74
74334;BME280;62753;40.394;-80.022;2023-01-28T10:24:47;97619.95;;;9.96;30.72
74334;BME280;62753;40.394;-80.022;2023-01-28T10:27:11;97625.01;;;10.07;29.91
74334;BME280;62753;40.394;-80.022;2023-01-28T10:29:35;97629.00;;;9.70;30.48
74334;BME280;62753;40.394;-80.022;2023-01-28T10:32:11;97634.15;;;9.17;31.34
74334;BME280;62753;40.394;-80.022;2023-01-28T10:34:26;97640.09;;;9.66;30.86
74334;BME280;62753;40.394;-80.022;2023-01-28T10:36:52;97638.60;;;10.20;29.76
74334;BME280;62753;40.394;-80.022;2023-01-28T10:39:20;97643.77;;;9.68;29.95
74334;BME280;62753;40.394;-80.022;2023-01-28T10:41:42;97647.05;;;8.61;31.82
74334;BME280;62753;40.394;-80.022;2023-01-28T10:44:14;97651.02;;;9.20;31.84
74334;BME280;62753;40.394;-80.022;2023-01-28T10:46:35;97661.59;;;9.73;30.85
74334;BME280;62753;40.394;-80.022;2023-01-28T10:49:05;97653.24;;;9.11;31.98
74334;BME280;62753;40.394;-80.022;2023-01-28T10:51:31;97663.90;;;9.25;31.36
74334;BME280;62753;40.394;-80.022;2023-01-28T10:53:50;97666.48;;;9.09;31.50
74334;BME280;62753;40.394;-80.022;2023-01-28T10:56:22;97671.00;;;9.19;31.31
74334;BME280;62753;40.394;-80.022;2023-01-28T10:58:52;97682.15;;;8.71;32.35
74334;BME280;62753;40.394;-80.022;2023-01-28T11:01:07;97690.91;;;9.22;31.64
74334;BME280;62753;40.394;-80.022;2023-01-28T11:03:33;97699.09;;;9.67;31.11
74334;BME280;62753;40.394;-80.022;2023-01-28T11:05:58;97702.02;;;9.16;32.51
74334;BME280;62753;40.394;-80.022;2023-01-28T11:08:24;97705.76;;;9.52;31.18
74334;BME280;62753;40.394;-80.022;2023-01-28T11:10:50;97708.65;;;9.46;31.36
74334;BME280;62753;40.394;-80.022;2023-01-28T11:13:21;97713.14;;;8.54;32.43
74334;BME280;62753;40.394;-80.022;2023-01-28T11:15:45;97719.07;;;9.07;31.69
74334;BME280;62753;40.394;-80.022;2023-01-28T11:18:07;97718.49;;;9.04;31.51
74334;BME280;62753;40.394;-80.022;2023-01-28T11:20:37;97728.34;;;8.99;32.44
74334;BME280;62753;40.394;-80.022;2023-01-28T11:22:57;97737.61;;;9.36;31.75
74334;BME280;62753;40.394;-80.022;2023-01-28T11:25:28;97747.43;;;8.50;32.27
74334;BME280;62753;40.394;-80.022;2023-01-28T11:27:50;97751.67;;;8.27;33.86
74334;BME280;62753;40.394;-80.022;2023-01-28T11:30:21;97754.75;;;8.61;32.81
74334;BME280;62753;40.394;-80.022;2023-01-28T11:32:38;97760.38;;;8.67;33.12
74334;BME280;62753;40.394;-80.022;2023-01-28T11:35:04;97762.33;;;9.36;31.95
74334;BME280;62753;40.394;-80.022;2023-01-28T11:37:30;97760.01;;;9.44;31.72
74334;BME280;62753;40.394;-80.022;2023-01-28T11:40:03;97768.07;;;9.65;31.50
74334;BME280;62753;40.394;-80.022;2023-01-28T11:42:21;97768.24;;;9.42;31.66
74334;BME280;62753;40.394;-80.022;2023-01-28T11:44:47;97780.12;;;9.71;31.09
74334;BME280;62753;40.394;-80.022;2023-01-28T11:47:30;97783.14;;;9.58;31.18
74334;BME280;62753;40.394;-80.022;2023-01-28T11:49:48;97785.28;;;9.92;30.64
74334;BME280;62753;40.394;-80.022;2023-01-28T11:52:09;97790.07;;;8.48;32.22
74334;BME280;62753;40.394;-80.022;2023-01-28T11:54:39;97799.13;;;9.21;31.97
74334;BME280;62753;40.394;-80.022;2023-01-28T11:57:08;97802.44;;;9.07;32.38
74334;BME280;62753;40.394;-80.022;2023-01-28T11:59:31;97807.23;;;9.47;32.35
74334;BME280;62753;40.394;-80.022;2023-01-28T12:01:50;97804.75;;;9.58;31.54
74334;BME280;62753;40.394;-80.022;2023-01-28T12:04:20;97804.00;;;9.68;31.68
74334;BME280;62753;40.394;-80.022;2023-01-28T12:06:45;97806.71;;;9.13;32.03
74334;BME280;62753;40.394;-80.022;2023-01-28T12:09:09;97804.32;;;9.73;30.92
74334;BME280;62753;40.394;-80.022;2023-01-28T12:11:31;97801.11;;;9.77;31.21
74334;BME280;62753;40.394;-80.022;2023-01-28T12:14:02;97811.16;;;9.71;30.83
74334;BME280;62753;40.394;-80.022;2023-01-28T12:16:29;97815.51;;;10.28;30.27
74334;BME280;62753;40.394;-80.022;2023-01-28T12:18:59;97829.64;;;10.51;29.96
74334;BME280;62753;40.394;-80.022;2023-01-28T12:21:15;97831.76;;;10.50;30.06
74334;BME280;62753;40.394;-80.022;2023-01-28T12:23:41;97836.95;;;10.76;29.49
74334;BME280;62753;40.394;-80.022;2023-01-28T12:26:06;97836.77;;;10.37;29.79
74334;BME280;62753;40.394;-80.022;2023-01-28T12:28:34;97841.86;;;10.27;30.13
74334;BME280;62753;40.394;-80.022;2023-01-28T12:31:01;97841.83;;;10.05;30.47
74334;BME280;62753;40.394;-80.022;2023-01-28T12:33:34;97848.98;;;10.51;30.01
74334;BME280;62753;40.394;-80.022;2023-01-28T12:35:52;97855.72;;;10.79;29.58
74334;BME280;62753;40.394;-80.022;2023-01-28T12:38:10;97853.01;;;9.98;30.79
74334;BME280;62753;40.394;-80.022;2023-01-28T12:40:47;97858.59;;;10.34;30.45
74334;BME280;62753;40.394;-80.022;2023-01-28T12:43:02;97866.86;;;10.38;30.42
74334;BME280;62753;40.394;-80.022;2023-01-28T12:45:26;97867.53;;;9.61;31.30
74334;BME280;62753;40.394;-80.022;2023-01-28T12:47:52;97875.13;;;10.40;30.51
74334;BME280;62753;40.394;-80.022;2023-01-28T12:50:19;97879.78;;;10.34;30.86